createdAt,value
2022-09-23T00:00:00.192Z,45.4
2022-09-23T00:05:00.127Z,45.5
2022-09-23T00:15:00.136Z,45.5
2022-09-23T00:20:00.193Z,45.6
2022-09-23T00:25:00.127Z,45.6
2022-09-23T00:30:00.168Z,45.6
2022-09-23T00:35:00.175Z,45.7
2022-09-23T00:40:00.182Z,45.7
2022-09-23T00:45:00.138Z,45.8
2022-09-23T00:50:00.189Z,45.8
2022-09-23T00:55:00.143Z,45.8
2022-09-23T01:00:00.171Z,45.9
2022-09-23T01:05:00.144Z,45.9
2022-09-23T01:15:00.175Z,46.0
2022-09-23T01:20:00.215Z,46.0
2022-09-23T01:25:00.149Z,45.0
2022-09-23T01:30:00.233Z,45.4
2022-09-23T01:35:00.180Z,45.5
2022-09-23T01:40:00.149Z,45.6
2022-09-23T01:45:00.133Z,45.7
2022-09-23T01:55:00.166Z,46.8
2022-09-23T02:00:00.268Z,46.8
2022-09-23T02:05:00.159Z,47.0
2022-09-23T02:15:00.217Z,47.2
2022-09-23T02:20:00.184Z,47.3
2022-09-23T02:25:00.132Z,47.3
2022-09-23T02:35:00.187Z,47.5
2022-09-23T02:40:00.390Z,47.5
2022-09-23T02:45:00.134Z,47.6
2022-09-23T02:55:00.133Z,47.7
2022-09-23T03:00:00.168Z,47.7
2022-09-23T03:05:00.168Z,47.7
2022-09-23T03:15:00.128Z,47.8
2022-09-23T03:20:00.237Z,47.8
2022-09-23T03:25:00.138Z,47.8
2022-09-23T03:35:00.167Z,47.9
2022-09-23T03:40:00.374Z,47.8
2022-09-23T03:45:00.149Z,47.8
2022-09-23T03:55:00.131Z,47.8
2022-09-23T04:00:00.186Z,47.8
2022-09-23T04:05:00.168Z,47.9
2022-09-23T04:15:00.178Z,48.5
2022-09-23T04:20:00.184Z,48.8
2022-09-23T04:25:01.073Z,48.8
2022-09-23T04:35:00.230Z,48.8
2022-09-23T04:40:01.669Z,48.8
2022-09-23T04:45:00.129Z,48.8
2022-09-23T04:55:00.131Z,48.8
2022-09-23T05:00:00.200Z,48.9
2022-09-23T05:05:00.152Z,48.8
2022-09-23T05:15:00.138Z,48.8
2022-09-23T05:20:00.182Z,48.9
2022-09-23T05:25:00.174Z,48.9
2022-09-23T05:35:00.133Z,48.8
2022-09-23T05:40:00.185Z,48.8
2022-09-23T05:45:00.169Z,48.8
2022-09-23T05:50:00.923Z,48.8
2022-09-23T05:55:00.143Z,48.9
2022-09-23T06:00:00.196Z,48.8
2022-09-23T06:05:00.176Z,48.8
2022-09-23T06:15:00.130Z,48.9
2022-09-23T06:20:00.196Z,48.9
2022-09-23T06:25:01.022Z,48.9
2022-09-23T06:35:00.163Z,48.8
2022-09-23T06:40:00.383Z,48.8
2022-09-23T06:45:00.168Z,48.8
2022-09-23T06:55:00.165Z,48.9
2022-09-23T07:00:00.207Z,48.9
2022-09-23T07:05:00.141Z,48.9
2022-09-23T07:15:00.172Z,48.9
2022-09-23T07:20:00.180Z,48.9
2022-09-23T07:25:00.140Z,48.9
2022-09-23T07:35:00.126Z,49.0
2022-09-23T07:40:00.158Z,48.9
2022-09-23T07:45:00.163Z,49.0
2022-09-23T07:55:00.157Z,49.0
2022-09-23T08:00:00.209Z,49.0
2022-09-23T08:05:00.138Z,49.0
2022-09-23T08:15:00.143Z,49.0
2022-09-23T08:20:00.958Z,49.0
2022-09-23T08:25:00.141Z,49.0
2022-09-23T08:35:00.169Z,49.0
2022-09-23T08:40:01.553Z,49.0
2022-09-23T08:45:00.171Z,49.0
2022-09-23T08:55:00.157Z,49.0
2022-09-23T09:00:00.209Z,49.0
2022-09-23T09:05:00.147Z,49.0
2022-09-23T09:15:00.195Z,49.0
2022-09-23T09:20:01.684Z,49.0
2022-09-23T09:25:00.143Z,49.0
2022-09-23T09:35:00.154Z,49.0
2022-09-23T09:40:00.199Z,49.0
2022-09-23T09:45:00.195Z,49.0
2022-09-23T09:55:00.078Z,49.1
2022-09-23T10:00:00.152Z,49.1
2022-09-23T10:05:00.086Z,49.0
2022-09-23T10:15:00.085Z,49.0
2022-09-23T10:20:00.141Z,49.0
2022-09-23T10:25:00.088Z,49.0
2022-09-23T10:35:00.107Z,48.9
2022-09-23T10:40:00.177Z,48.8
2022-09-23T10:45:00.417Z,48.8
2022-09-23T10:55:00.083Z,48.9
2022-09-23T11:00:00.140Z,48.8
2022-09-23T11:05:00.316Z,48.9
2022-09-23T11:15:00.139Z,48.9
2022-09-23T11:20:00.175Z,48.7
2022-09-23T11:25:00.105Z,47.9
2022-09-23T11:35:00.139Z,47.9
2022-09-23T11:40:00.157Z,48.1
2022-09-23T11:45:02.600Z,48.2
2022-09-23T11:55:03.246Z,48.3
2022-09-23T12:00:00.340Z,48.3
2022-09-23T12:05:00.648Z,48.3
2022-09-23T12:10:00.181Z,48.4
2022-09-23T12:15:00.122Z,48.5
2022-09-23T12:20:00.165Z,48.6
2022-09-23T12:25:00.138Z,48.6
2022-09-23T12:35:00.132Z,46.9
2022-09-23T12:40:00.163Z,47.0
2022-09-23T12:45:00.233Z,46.6
2022-09-23T12:50:00.158Z,46.6
2022-09-23T12:55:00.123Z,46.5
2022-09-23T13:00:00.182Z,46.4
2022-09-23T13:05:00.176Z,46.0
2022-09-23T13:15:00.131Z,45.3
2022-09-23T13:20:00.180Z,44.7
2022-09-23T13:25:00.157Z,45.5
2022-09-23T13:30:00.252Z,45.6
2022-09-23T13:35:00.110Z,46.0
2022-09-23T13:40:00.170Z,47.0
2022-09-23T13:45:00.137Z,47.7
2022-09-23T13:55:00.181Z,48.1
2022-09-23T14:00:01.519Z,48.1
2022-09-23T14:05:01.312Z,48.2
2022-09-23T14:15:00.124Z,48.2
2022-09-23T14:20:00.163Z,47.9
2022-09-23T14:25:00.239Z,47.8
2022-09-23T14:35:00.138Z,47.6
2022-09-23T14:40:00.242Z,47.4
2022-09-23T14:45:00.190Z,47.4
2022-09-23T14:55:01.209Z,47.3
2022-09-23T15:00:00.221Z,47.1
2022-09-23T15:05:00.155Z,47.0
2022-09-23T15:15:00.152Z,46.9
2022-09-23T15:20:00.194Z,46.8
2022-09-23T15:25:00.186Z,46.8
2022-09-23T15:35:00.144Z,46.9
2022-09-23T15:40:00.189Z,46.8
2022-09-23T15:45:00.279Z,46.7
2022-09-23T15:55:00.146Z,46.5
2022-09-23T16:00:00.199Z,46.5
2022-09-23T16:05:00.158Z,45.9
2022-09-23T16:15:00.149Z,45.5
2022-09-23T16:20:00.194Z,45.4
2022-09-23T16:25:00.177Z,45.3
2022-09-23T16:35:00.129Z,45.2
2022-09-23T16:40:00.200Z,45.2
2022-09-23T16:45:00.177Z,45.2
2022-09-23T16:50:00.283Z,45.2
2022-09-23T16:55:00.147Z,45.2
2022-09-23T17:00:00.383Z,45.1
2022-09-23T17:05:00.137Z,45.0
2022-09-23T17:15:00.125Z,45.1
2022-09-23T17:20:00.176Z,45.0
2022-09-23T17:25:01.017Z,45.0
2022-09-23T17:35:00.120Z,45.0
2022-09-23T17:40:02.017Z,45.1
2022-09-23T17:45:00.164Z,45.0
2022-09-23T17:55:00.168Z,45.2
2022-09-23T18:00:00.167Z,45.4
2022-09-23T18:05:00.212Z,45.5
2022-09-23T18:15:00.183Z,45.5
2022-09-23T18:20:00.192Z,45.5
2022-09-23T18:25:28.735Z,45.5
2022-09-23T18:35:00.179Z,45.5
2022-09-23T18:40:00.183Z,45.5
2022-09-23T18:45:00.191Z,45.6
2022-09-23T18:50:00.265Z,45.5
2022-09-23T18:55:00.159Z,45.5
2022-09-23T19:00:00.206Z,45.5
2022-09-23T19:05:00.176Z,45.5
2022-09-23T19:15:01.213Z,45.6
2022-09-23T19:20:00.191Z,45.6
2022-09-23T19:25:00.160Z,45.7
2022-09-23T19:35:00.177Z,45.9
2022-09-23T19:40:00.215Z,46.1
2022-09-23T19:45:00.178Z,46.2
2022-09-23T19:55:00.145Z,46.4
2022-09-23T20:00:00.185Z,46.4
2022-09-23T20:05:00.200Z,46.5
2022-09-23T20:15:00.156Z,46.5
2022-09-23T20:20:00.212Z,46.4
2022-09-23T20:25:00.185Z,46.5
2022-09-23T20:35:00.194Z,46.3
2022-09-23T20:40:00.182Z,46.0
2022-09-23T20:45:00.163Z,45.9
2022-09-23T20:55:00.125Z,45.7
2022-09-23T21:00:00.191Z,45.6
2022-09-23T21:05:00.253Z,45.6
2022-09-23T21:15:00.191Z,45.6
2022-09-23T21:20:00.194Z,45.6
2022-09-23T21:25:27.225Z,45.5
2022-09-23T21:35:00.157Z,46.2
2022-09-23T21:40:00.193Z,46.4
2022-09-23T21:45:01.503Z,46.7
2022-09-23T21:50:00.188Z,46.9
2022-09-23T21:55:00.163Z,47.2
2022-09-23T22:00:00.212Z,47.3
2022-09-23T22:05:00.348Z,47.5
2022-09-23T22:15:00.223Z,47.7
2022-09-23T22:20:01.067Z,47.8
2022-09-23T22:25:00.181Z,47.8
2022-09-23T22:35:00.241Z,47.9
2022-09-23T22:40:00.273Z,48.0
2022-09-23T22:45:00.262Z,48.1
2022-09-23T22:55:00.244Z,48.1
2022-09-23T23:00:00.261Z,48.0
2022-09-23T23:05:00.270Z,48.1
2022-09-23T23:15:00.228Z,48.1
2022-09-23T23:20:00.248Z,48.1
2022-09-23T23:25:00.225Z,48.1
2022-09-23T23:35:00.154Z,48.1
2022-09-23T23:40:00.193Z,48.1
2022-09-23T23:45:00.178Z,48.1
2022-09-23T23:50:00.232Z,48.1
2022-09-23T23:55:00.135Z,48.1
